Aviation Digital Data Service (ADDS)

Output produced by METARs form (1634 UTC 24 April 2014)
found at http://aviationweather.gov/adds/metars/
 
KLAS 241618Z 2416/2512 03007KT P6SM SCT250 
     FM241900 09006KT P6SM SKC 
     FM242200 17010KT P6SM SKC 
     FM250200 21010KT P6SM FEW250